Time;durP1;ratioP1;P1;durP2;ratioP2;P2;SDS_P1;SDS_P2;PMS_P1;PMS_P2;Temp;Humidity;BMP_temperature;BMP_pressure;BME280_temperature;BME280_humidity;BME280_pressure;Samples;Min_cycle;Max_cycle;Signal;HPM_P1;HPM_P2
2023/03/10 00:02:25;;;;;;;70.95;34.63;;;;;;;3.34;100.00;98507.47;5034527;28;20030;-76
2023/03/10 00:04:51;;;;;;;69.35;33.72;;;;;;;3.19;100.00;98507.47;5034686;28;20055;-76
2023/03/10 00:07:17;;;;;;;69.88;34.63;;;;;;;3.65;100.00;98575.53;5017024;28;20033;-75
2023/03/10 00:09:43;;;;;;;63.72;32.05;;;;;;;3.06;100.00;98512.66;5034610;28;20029;-76
2023/03/10 00:12:09;;;;;;;64.43;32.75;;;;;;;3.41;100.00;98549.44;5032693;28;20394;-75
2023/03/10 00:14:34;;;;;;;70.57;34.95;;;;;;;3.08;100.00;98492.41;5032631;28;20382;-76
2023/03/10 00:17:00;;;;;;;68.05;34.40;;;;;;;3.21;100.00;98510.63;5032116;28;20032;-75
2023/03/10 00:19:25;;;;;;;66.03;35.33;;;;;;;3.25;100.00;98506.81;5032103;28;20037;-75
2023/03/10 00:21:51;;;;;;;68.50;34.53;;;;;;;3.56;100.00;98538.13;5030906;28;20171;-76
2023/03/10 00:24:17;;;;;;;67.45;33.00;;;;;;;3.56;100.00;98529.66;5031958;28;20489;-75
2023/03/10 00:26:44;;;;;;;72.30;35.45;;;;;;;3.59;100.00;98551.28;5031939;28;20034;-77
2023/03/10 00:29:10;;;;;;;70.22;33.53;;;;;;;3.40;100.00;98541.44;5032322;28;20057;-75
2023/03/10 00:31:36;;;;;;;72.32;34.75;;;;;;;3.43;100.00;98563.84;5034097;28;20105;-76
2023/03/10 00:34:01;;;;;;;69.13;35.42;;;;;;;3.32;100.00;98558.00;5033180;28;20057;-74
2023/03/10 00:36:28;;;;;;;77.65;36.50;;;;;;;3.20;100.00;98545.75;5031862;28;20471;-75
2023/03/10 00:38:55;;;;;;;72.55;36.90;;;;;;;3.13;100.00;98539.72;5031833;28;20108;-75
2023/03/10 00:41:22;;;;;;;80.22;36.10;;;;;;;3.04;100.00;98526.44;5031488;28;20152;-75
2023/03/10 00:43:48;;;;;;;82.90;39.85;;;;;;;3.01;100.00;98530.25;5031845;28;20036;-75
2023/03/10 00:46:14;;;;;;;87.28;41.05;;;;;;;2.73;100.00;98484.63;5031778;28;20025;-74
2023/03/10 00:48:39;;;;;;;95.97;42.90;;;;;;;3.01;100.00;98530.25;5031940;28;20030;-75
2023/03/10 00:51:06;;;;;;;87.85;41.40;;;;;;;3.16;100.00;98530.25;5033692;28;20101;-74
2023/03/10 00:53:34;;;;;;;76.07;37.33;;;;;;;3.21;100.00;98521.91;5033712;28;20482;-76
2023/03/10 00:56:00;;;;;;;73.45;36.10;;;;;;;2.69;100.00;98455.03;5033841;28;20475;-74
2023/03/10 00:58:26;;;;;;;66.43;33.47;;;;;;;3.33;100.00;98539.78;5033589;28;20036;-75
2023/03/10 01:00:53;;;;;;;68.63;32.50;;;;;;;2.92;100.00;98473.16;5033510;28;20101;-74
2023/03/10 01:03:19;;;;;;;71.43;33.88;;;;;;;2.72;100.00;98446.41;5033555;28;20025;-75
2023/03/10 01:05:44;;;;;;;65.30;32.67;;;;;;;2.76;100.00;98471.56;5033731;28;22107;-74
2023/03/10 01:08:10;;;;;;;69.20;32.45;;;;;;;2.88;100.00;98490.28;5033327;28;20025;-74
2023/03/10 01:10:35;;;;;;;71.30;34.47;;;;;;;2.74;100.00;98474.88;5033462;28;20026;-75
2023/03/10 01:13:00;;;;;;;70.97;34.88;;;;;;;2.17;100.00;98397.44;5033574;28;20021;-76
2023/03/10 01:15:26;;;;;;;71.47;33.53;;;;;;;2.49;100.00;98446.47;5033670;28;20371;-75
2023/03/10 01:17:51;;;;;;;73.85;32.67;;;;;;;2.63;100.00;98479.53;5033495;28;20112;-74
2023/03/10 01:20:17;;;;;;;67.18;32.28;;;;;;;2.71;100.00;98492.78;5033518;28;20029;-76
2023/03/10 01:22:43;;;;;;;71.22;34.83;;;;;;;2.45;100.00;98485.31;5033346;28;20021;-75
2023/03/10 01:25:13;;;;;;;74.43;33.45;;;;;;;2.17;100.00;98426.38;5033216;28;20018;-75
2023/03/10 01:27:38;;;;;;;77.22;36.13;;;;;;;1.88;100.00;98384.06;5032174;28;20030;-75
2023/03/10 01:30:04;;;;;;;68.97;33.63;;;;;;;2.49;100.00;98480.28;5033391;28;20032;-75
2023/03/10 01:32:30;;;;;;;74.38;35.92;;;;;;;1.76;100.00;98377.41;5033178;28;20490;-76
2023/03/10 01:34:56;;;;;;;77.22;36.58;;;;;;;2.39;100.00;98476.75;5033160;28;20025;-74
2023/03/10 01:37:21;;;;;;;82.28;38.08;;;;;;;2.40;100.00;98485.97;5033146;28;20041;-76
2023/03/10 01:39:47;;;;;;;78.68;37.00;;;;;;;2.13;100.00;98441.91;5032302;28;20083;-75
2023/03/10 01:42:12;;;;;;;84.00;36.35;;;;;;;2.05;100.00;98421.75;5035625;28;20399;-75
2023/03/10 01:44:38;;;;;;;80.80;37.22;;;;;;;2.29;100.00;98452.75;5036942;28;20036;-75
2023/03/10 01:47:03;;;;;;;100.43;38.38;;;;;;;2.06;100.00;98434.59;5037216;28;20021;-75
2023/03/10 01:49:42;;;;;;;89.68;35.88;;;;;;;2.32;100.00;98457.41;5035919;28;20463;-76
2023/03/10 01:52:15;;;;;;;84.82;38.35;;;;;;;2.39;100.00;98453.44;5037163;28;20029;-75
2023/03/10 01:54:45;;;;;;;70.95;32.65;;;;;;;2.44;100.00;98449.97;5037276;28;20482;-76
2023/03/10 01:57:12;;;;;;;69.45;30.58;;;;;;;2.42;100.00;98424.28;5019317;28;20543;-75
2023/03/10 01:59:39;;;;;;;60.45;29.10;;;;;;;2.32;100.00;98395.41;5035676;28;20445;-75
2023/03/10 02:02:04;;;;;;;68.03;29.25;;;;;;;2.18;100.00;98362.38;5035648;28;20095;-76
2023/03/10 02:04:41;;;;;;;55.30;27.45;;;;;;;2.80;100.00;98435.50;5035017;28;20414;-75
2023/03/10 02:07:07;;;;;;;51.90;25.88;;;;;;;2.37;100.00;98360.16;5034545;28;20036;-75
2023/03/10 02:09:36;;;;;;;47.80;23.98;;;;;;;2.71;100.00;98365.09;5034866;28;20351;-75
2023/03/10 02:12:03;;;;;;;45.35;23.08;;;;;;;3.29;100.00;98431.97;5033156;28;20033;-76
2023/03/10 02:14:30;;;;;;;37.75;20.08;;;;;;;3.55;100.00;98423.63;5034708;28;20025;-76
2023/03/10 02:16:56;;;;;;;39.13;21.60;;;;;;;3.62;100.00;98395.00;5032934;28;20030;-75
2023/03/10 02:19:49;;;;;;;31.50;18.05;;;;;;;4.13;100.00;98411.34;5035076;28;20036;-76
2023/03/10 02:22:16;;;;;;;28.65;15.55;;;;;;;4.11;100.00;98379.22;5036626;28;20049;-75
2023/03/10 02:25:02;;;;;;;26.50;15.50;;;;;;;3.95;100.00;98310.69;5035753;28;20029;-75
2023/03/10 02:27:33;;;;;;;21.20;13.23;;;;;;;4.79;100.00;98402.03;5032910;28;20385;-76
2023/03/10 02:30:05;;;;;;;16.10;12.02;;;;;;;4.77;100.00;98368.56;5034240;28;20508;-75
2023/03/10 02:32:33;;;;;;;15.63;9.70;;;;;;;5.01;100.00;98364.66;5032895;28;20195;-75
2023/03/10 02:34:59;;;;;;;11.45;8.55;;;;;;;4.94;100.00;98349.69;5032926;28;20037;-75
2023/03/10 02:37:29;;;;;;;11.65;7.85;;;;;;;5.35;100.00;98378.56;5034609;28;20033;-75
2023/03/10 02:39:55;;;;;;;10.02;6.00;;;;;;;5.36;100.00;98359.50;5034911;28;20026;-75
2023/03/10 02:42:26;;;;;;;11.30;5.82;;;;;;;5.76;100.00;98383.94;5035817;28;20056;-75
2023/03/10 02:44:53;;;;;;;8.52;5.40;;;;;;;5.87;100.00;98389.69;5034729;28;20029;-75
2023/03/10 02:47:19;;;;;;;6.95;4.70;;;;;;;5.99;100.00;98384.84;5036045;28;20374;-75
2023/03/10 02:49:45;;;;;;;9.48;5.60;;;;;;;5.95;100.00;98351.06;5036024;28;20075;-75
2023/03/10 02:52:39;;;;;;;7.05;4.53;;;;;;;6.20;100.00;98367.13;5035733;28;20116;-74
2023/03/10 02:55:04;;;;;;;8.18;4.45;;;;;;;6.13;100.00;98339.28;5034827;28;20026;-75
2023/03/10 02:57:30;;;;;;;8.52;4.40;;;;;;;6.40;100.00;98348.41;5035948;28;20463;-76
2023/03/10 02:59:55;;;;;;;8.30;4.38;;;;;;;6.37;100.00;98304.81;5035971;28;20489;-75
2023/03/10 03:02:21;;;;;;;8.48;4.05;;;;;;;5.97;100.00;98240.00;5035727;28;20033;-74
2023/03/10 03:04:46;;;;;;;8.38;4.55;;;;;;;6.58;100.00;98308.22;5035514;28;20029;-75
2023/03/10 03:07:12;;;;;;;10.55;4.30;;;;;;;6.14;100.00;98244.41;5035394;28;20545;-75
2023/03/10 03:09:37;;;;;;;6.85;4.13;;;;;;;6.72;100.00;98310.03;5036224;28;20029;-75
2023/03/10 03:12:03;;;;;;;8.88;4.10;;;;;;;6.68;100.00;98303.84;5035602;28;20083;-75
2023/03/10 03:14:28;;;;;;;8.85;4.25;;;;;;;6.68;100.00;98290.38;5035516;28;20084;-75
2023/03/10 03:16:53;;;;;;;5.85;3.75;;;;;;;6.86;100.00;98303.31;5034256;28;20025;-76
2023/03/10 03:19:19;;;;;;;8.05;3.45;;;;;;;6.95;100.00;98314.41;5035510;28;20441;-76
2023/03/10 03:21:48;;;;;;;7.07;3.35;;;;;;;6.96;100.00;98303.81;5035552;28;20029;-75
2023/03/10 03:24:19;;;;;;;11.77;4.32;;;;;;;6.96;100.00;98287.56;5034984;28;20432;-76
2023/03/10 03:26:45;;;;;;;7.38;3.25;;;;;;;6.92;100.00;98286.28;5034102;28;20060;-75
2023/03/10 03:29:10;;;;;;;5.40;2.72;;;;;;;6.95;100.00;98291.69;5035051;28;20037;-75
2023/03/10 03:31:36;;;;;;;5.65;2.97;;;;;;;6.93;100.00;98282.91;5035354;28;20109;-75
2023/03/10 03:34:03;;;;;;;4.80;2.85;;;;;;;6.96;100.00;98281.09;5033751;28;20029;-76
2023/03/10 03:36:29;;;;;;;6.53;3.15;;;;;;;6.94;100.00;98278.78;5034871;28;20467;-74
2023/03/10 03:38:54;;;;;;;3.65;2.53;;;;;;;6.80;100.00;98259.19;5035264;28;20040;-75
2023/03/10 03:41:20;;;;;;;6.50;2.92;;;;;;;6.78;100.00;98256.09;5034857;28;20045;-76
2023/03/10 03:43:45;;;;;;;7.35;3.67;;;;;;;6.81;100.00;98255.84;5035460;28;20087;-75
2023/03/10 03:46:10;;;;;;;6.30;3.35;;;;;;;6.87;100.00;98261.50;5034764;28;20033;-76
2023/03/10 03:48:37;;;;;;;6.43;3.63;;;;;;;6.99;100.00;98263.03;5034705;28;20451;-74
2023/03/10 03:51:02;;;;;;;5.10;3.30;;;;;;;6.95;100.00;98243.41;5033818;28;20107;-74
2023/03/10 03:53:28;;;;;;;8.38;3.58;;;;;;;7.09;100.00;98258.63;5034719;28;20459;-76
2023/03/10 03:55:54;;;;;;;8.90;3.08;;;;;;;7.16;100.00;98252.41;5034740;28;20071;-76
2023/03/10 03:58:19;;;;;;;8.27;2.55;;;;;;;7.14;100.00;98235.13;5017000;28;20037;-75
2023/03/10 04:00:45;;;;;;;6.57;2.20;;;;;;;7.32;100.00;98253.69;5034559;28;20025;-75
2023/03/10 04:03:10;;;;;;;11.85;2.72;;;;;;;7.29;100.00;98241.28;5033976;28;20072;-76
2023/03/10 04:05:36;;;;;;;8.88;2.58;;;;;;;7.36;100.00;98242.81;5034215;28;20041;-76
2023/03/10 04:08:01;;;;;;;6.05;2.38;;;;;;;7.44;100.00;98232.44;5033287;28;20029;-76
2023/03/10 04:10:27;;;;;;;6.28;2.42;;;;;;;7.38;100.00;98214.63;5034606;28;20025;-76
2023/03/10 04:12:53;;;;;;;8.32;2.22;;;;;;;7.49;100.00;98206.06;5034512;28;20029;-76
2023/03/10 04:15:19;;;;;;;4.45;2.45;;;;;;;7.67;100.00;98233.16;5034539;28;20017;-76
2023/03/10 04:17:44;;;;;;;6.97;2.33;;;;;;;7.69;100.00;98231.31;5034344;28;20033;-76
2023/03/10 04:20:13;;;;;;;4.60;1.70;;;;;;;7.77;100.00;98226.59;5034435;28;20033;-76
2023/03/10 04:22:39;;;;;;;3.92;1.65;;;;;;;7.83;100.00;98218.03;5034741;28;20037;-76
2023/03/10 04:25:06;;;;;;;3.85;1.73;;;;;;;7.86;100.00;98214.19;5034134;28;20037;-75
2023/03/10 04:27:32;;;;;;;5.75;1.80;;;;;;;7.86;100.00;98203.56;5034317;28;20033;-76
2023/03/10 04:29:58;;;;;;;5.72;2.20;;;;;;;8.01;100.00;98214.59;5034061;28;20037;-76
2023/03/10 04:32:23;;;;;;;4.95;1.80;;;;;;;8.00;100.00;98218.75;5034010;28;20047;-75
2023/03/10 04:34:49;;;;;;;6.68;2.03;;;;;;;7.98;100.00;98215.63;5033906;28;20560;-74
2023/03/10 04:37:14;;;;;;;7.97;2.58;;;;;;;8.02;100.00;98218.97;5033698;28;20458;-75
2023/03/10 04:39:40;;;;;;;7.38;1.98;;;;;;;8.00;100.00;98204.53;5033685;28;20021;-75
2023/03/10 04:42:05;;;;;;;3.40;1.83;;;;;;;7.90;100.00;98181.31;5033590;28;20495;-75
2023/03/10 04:44:31;;;;;;;4.63;1.80;;;;;;;7.98;100.00;98196.50;5032338;28;20379;-76
2023/03/10 04:46:56;;;;;;;8.05;2.70;;;;;;;8.01;100.00;98188.22;5033568;28;20079;-75
2023/03/10 04:49:22;;;;;;;7.25;2.35;;;;;;;8.00;100.00;98181.78;5033629;28;20033;-75
2023/03/10 04:51:47;;;;;;;5.95;2.72;;;;;;;8.01;100.00;98189.00;5033777;28;20033;-75
2023/03/10 04:54:12;;;;;;;7.65;2.83;;;;;;;7.93;100.00;98171.72;5033471;28;20026;-75
2023/03/10 04:56:38;;;;;;;3.42;1.88;;;;;;;7.99;100.00;98185.91;5032399;28;20083;-75
2023/03/10 04:59:03;;;;;;;5.10;2.38;;;;;;;7.97;100.00;98188.50;5033744;28;20025;-75
2023/03/10 05:01:31;;;;;;;7.20;2.22;;;;;;;7.95;100.00;98185.41;5033573;28;20528;-75
2023/03/10 05:04:01;;;;;;;2.58;1.80;;;;;;;7.93;100.00;98191.63;5033506;28;20456;-76
2023/03/10 05:06:27;;;;;;;2.97;1.60;;;;;;;7.91;100.00;98196.31;5033239;28;20032;-77
2023/03/10 05:08:53;;;;;;;2.83;1.85;;;;;;;7.75;100.00;98161.00;5033235;28;20025;-75
2023/03/10 05:11:18;;;;;;;6.03;1.95;;;;;;;7.86;100.00;98182.91;5033200;28;20467;-75
2023/03/10 05:13:44;;;;;;;4.88;1.95;;;;;;;7.86;100.00;98185.75;5033141;28;20064;-75
2023/03/10 05:16:14;;;;;;;6.90;2.42;;;;;;;7.79;100.00;98170.00;5030981;28;20026;-76
2023/03/10 05:18:40;;;;;;;2.53;1.88;;;;;;;7.87;100.00;98176.66;5037578;28;20025;-77
2023/03/10 05:21:05;;;;;;;5.25;2.08;;;;;;;7.88;100.00;98172.53;5053184;28;20052;-75
2023/03/10 05:23:30;;;;;;;5.75;2.08;;;;;;;7.79;100.00;98152.94;5053020;28;20021;-76
2023/03/10 05:25:56;;;;;;;4.85;1.95;;;;;;;7.91;100.00;98160.13;5035224;28;20029;-76
2023/03/10 05:28:22;;;;;;;5.03;2.22;;;;;;;7.86;100.00;98154.47;5045866;28;20057;-75
2023/03/10 05:30:48;;;;;;;5.18;1.65;;;;;;;7.85;100.00;98153.69;5014961;28;20022;-76
2023/03/10 05:33:14;;;;;;;3.72;1.60;;;;;;;7.79;100.00;98144.41;5032567;28;20027;-75
2023/03/10 05:35:41;;;;;;;2.92;1.50;;;;;;;7.87;100.00;98164.50;5032953;28;20029;-77
2023/03/10 05:38:07;;;;;;;4.80;1.70;;;;;;;7.89;100.00;98165.56;5032647;28;20048;-78
2023/03/10 05:40:35;;;;;;;5.28;1.60;;;;;;;7.83;100.00;98150.59;5031483;28;20559;-77
2023/03/10 05:43:02;;;;;;;4.25;1.70;;;;;;;7.81;100.00;98158.13;5032741;28;20159;-77
2023/03/10 05:45:28;;;;;;;8.43;1.92;;;;;;;7.91;100.00;98156.50;5033039;28;20076;-79
2023/03/10 05:47:55;;;;;;;4.93;1.90;;;;;;;7.92;100.00;98149.50;5035837;28;20483;-81
2023/03/10 05:50:21;;;;;;;5.30;1.73;;;;;;;7.90;100.00;98155.72;5041400;28;20036;-86
2023/03/10 05:52:51;;;;;;;4.50;1.65;;;;;;;7.88;100.00;98146.16;5037429;28;20057;-83
2023/03/10 05:55:28;;;;;;;2.58;1.30;;;;;;;7.92;100.00;98152.34;5033145;28;20478;-82
2023/03/10 05:57:53;;;;;;;5.30;1.90;;;;;;;7.76;100.00;98113.44;5033191;28;20073;-82
2023/03/10 06:00:19;;;;;;;4.20;1.67;;;;;;;7.82;100.00;98119.84;5033709;28;20478;-83
2023/03/10 06:02:47;;;;;;;6.10;1.60;;;;;;;7.98;100.00;98133.94;5032920;28;20104;-83
2023/03/10 06:05:12;;;;;;;2.78;1.67;;;;;;;8.07;100.00;98137.75;5032787;28;20103;-81
2023/03/10 06:07:46;;;;;;;3.85;1.50;;;;;;;8.07;100.00;98126.38;5038174;28;20462;-83
2023/03/10 06:10:12;;;;;;;5.00;2.25;;;;;;;8.11;100.00;98124.03;5052364;28;20025;-79
2023/03/10 06:12:40;;;;;;;6.68;2.30;;;;;;;8.20;100.00;98115.97;5052541;28;20382;-82
2023/03/10 06:15:07;;;;;;;5.90;2.17;;;;;;;8.26;100.00;98105.28;5052602;28;20523;-81
2023/03/10 06:17:33;;;;;;;7.00;3.08;;;;;;;8.35;100.00;98089.97;5047739;28;20056;-83
2023/03/10 06:19:59;;;;;;;6.00;3.13;;;;;;;8.54;100.00;98099.34;5032659;28;20145;-83
2023/03/10 06:22:24;;;;;;;7.72;2.83;;;;;;;8.55;100.00;98083.03;5032746;28;20478;-84
2023/03/10 06:24:52;;;;;;;6.90;2.45;;;;;;;8.62;100.00;98096.66;5030889;28;20042;-82
2023/03/10 06:27:25;;;;;;;4.53;2.30;;;;;;;8.62;100.00;98090.97;5035679;28;20103;-80
2023/03/10 06:29:51;;;;;;;6.03;2.08;;;;;;;8.67;100.00;98093.00;5034981;28;20021;-81
2023/03/10 06:32:16;;;;;;;4.78;1.67;;;;;;;8.66;100.00;98080.06;5036523;28;20184;-84
2023/03/10 06:34:43;;;;;;;4.45;2.00;;;;;;;8.72;100.00;98086.47;5036215;28;20025;-84
2023/03/10 06:37:08;;;;;;;5.85;2.35;;;;;;;8.64;100.00;98077.00;5036625;28;20104;-82
2023/03/10 06:39:36;;;;;;;6.40;2.00;;;;;;;8.66;100.00;98082.91;5035700;28;20104;-84
2023/03/10 06:42:02;;;;;;;9.15;2.00;;;;;;;8.62;100.00;98083.19;5034535;28;20049;-84
2023/03/10 06:44:27;;;;;;;4.10;2.03;;;;;;;8.64;100.00;98080.59;5038727;28;20048;-84
2023/03/10 06:46:53;;;;;;;5.13;1.90;;;;;;;8.65;100.00;98090.69;5040103;28;20042;-84
2023/03/10 06:49:18;;;;;;;5.10;2.15;;;;;;;8.60;100.00;98082.97;5038547;28;20021;-82
2023/03/10 06:51:43;;;;;;;5.70;2.10;;;;;;;8.53;100.00;98071.41;5035989;28;20374;-83
2023/03/10 06:54:09;;;;;;;8.65;2.60;;;;;;;8.61;100.00;98078.03;5032519;28;20359;-82
2023/03/10 06:56:34;;;;;;;9.98;3.00;;;;;;;8.63;100.00;98079.06;5032367;28;20079;-84
2023/03/10 06:59:00;;;;;;;6.30;2.25;;;;;;;8.65;100.00;98073.63;5033459;28;20040;-83
2023/03/10 07:01:28;;;;;;;11.30;2.80;;;;;;;8.74;100.00;98084.63;5033691;28;20075;-84
2023/03/10 07:03:54;;;;;;;8.65;2.95;;;;;;;8.80;100.00;98087.44;5033760;28;20072;-85
2023/03/10 07:06:20;;;;;;;9.30;2.70;;;;;;;8.82;100.00;98084.78;5033970;28;20049;-83
2023/03/10 07:08:46;;;;;;;7.50;2.65;;;;;;;8.95;100.00;98087.75;5034917;28;20485;-84
2023/03/10 07:11:12;;;;;;;8.73;2.50;;;;;;;8.95;100.00;98078.44;5036790;28;20055;-86
2023/03/10 07:13:38;;;;;;;9.05;3.30;;;;;;;9.04;100.00;98076.00;5043823;28;20057;-85
2023/03/10 07:16:04;;;;;;;7.35;2.28;;;;;;;9.13;100.00;98080.53;5050161;28;20525;-85
2023/03/10 07:18:29;;;;;;;5.22;2.67;;;;;;;9.18;100.00;98079.69;5045418;28;20043;-83
2023/03/10 07:20:55;;;;;;;13.40;4.30;;;;;;;9.24;100.00;98078.31;5039443;28;20112;-82
2023/03/10 07:23:22;;;;;;;15.90;6.72;;;;;;;9.42;100.00;98073.16;5038510;28;20454;-85
2023/03/10 07:25:52;;;;;;;26.92;12.10;;;;;;;9.41;100.00;98052.44;5035848;28;20096;-85
2023/03/10 07:28:18;;;;;;;22.08;9.13;;;;;;;9.69;100.00;98066.28;5035573;28;20022;-84
2023/03/10 07:30:43;;;;;;;17.05;8.45;;;;;;;9.86;100.00;98063.19;5035109;28;20112;-84
2023/03/10 07:33:09;;;;;;;6.97;4.07;;;;;;;10.02;100.00;98067.84;5033865;28;20029;-85
2023/03/10 07:35:35;;;;;;;6.40;3.05;;;;;;;10.20;100.00;98054.81;5035166;28;20063;-85
2023/03/10 07:38:00;;;;;;;7.70;3.30;;;;;;;10.08;100.00;98008.63;5034143;28;20071;-84
2023/03/10 07:40:26;;;;;;;6.25;2.83;;;;;;;10.65;100.00;98054.78;5034046;28;20027;-85
2023/03/10 07:42:55;;;;;;;7.75;2.83;;;;;;;10.98;100.00;98043.44;5034879;28;20145;-85
2023/03/10 07:45:22;;;;;;;8.77;3.15;;;;;;;11.29;100.00;98049.59;5034957;28;20049;-76
2023/03/10 07:47:49;;;;;;;8.63;2.85;;;;;;;11.38;100.00;98032.75;5034684;28;20446;-80
2023/03/10 07:50:15;;;;;;;6.50;2.33;;;;;;;11.37;100.00;98025.47;5024840;28;20084;-78
2023/03/10 07:52:41;;;;;;;15.98;3.88;;;;;;;11.36;100.00;98031.78;5034492;28;20029;-76
2023/03/10 07:55:09;;;;;;;14.10;3.80;;;;;;;11.40;100.00;98035.81;5035150;28;20021;-79
2023/03/10 07:57:35;;;;;;;21.77;9.27;;;;;;;11.50;100.00;98047.56;5051142;28;20478;-80
2023/03/10 08:00:03;;;;;;;22.15;10.05;;;;;;;11.45;100.00;98039.09;5034516;28;20127;-80
2023/03/10 08:02:29;;;;;;;20.40;7.95;;;;;;;11.16;100.00;98013.25;5016959;28;20479;-80
2023/03/10 08:04:57;;;;;;;16.23;7.68;;;;;;;10.88;100.00;97996.66;5034167;28;20029;-79
2023/03/10 08:07:26;;;;;;;15.50;7.25;;;;;;;11.14;100.00;98040.81;5033071;28;20088;-77
2023/03/10 08:09:52;;;;;;;8.50;4.53;;;;;;;11.14;100.00;98058.75;5034671;28;20034;-78
2023/03/10 08:12:20;;;;;;;9.07;3.55;;;;;;;11.00;100.00;98062.91;5016295;28;20112;-78
2023/03/10 08:14:46;;;;;;;5.47;2.35;;;;;;;10.89;100.00;98058.19;5000119;28;20021;-74
2023/03/10 08:17:13;;;;;;;7.78;2.25;;;;;;;10.80;100.00;98055.78;5052426;28;20048;-75
2023/03/10 08:19:40;;;;;;;10.30;2.10;;;;;;;10.86;100.00;98070.72;5047250;28;20067;-77
2023/03/10 08:22:06;;;;;;;6.60;2.83;;;;;;;10.80;100.00;98072.16;5036032;28;20048;-77
2023/03/10 08:24:32;;;;;;;7.35;2.92;;;;;;;10.92;100.00;98067.75;5053740;28;20036;-75
2023/03/10 08:26:57;;;;;;;8.98;3.83;;;;;;;11.01;100.00;98066.53;5053314;28;20021;-76
2023/03/10 08:29:23;;;;;;;15.40;4.03;;;;;;;11.04;100.00;98062.56;5053510;28;20025;-75
2023/03/10 08:31:49;;;;;;;10.35;3.80;;;;;;;11.21;100.00;98068.75;5052778;28;20048;-77
2023/03/10 08:34:16;;;;;;;9.23;3.85;;;;;;;11.22;100.00;98071.03;5052451;28;20017;-80
2023/03/10 08:36:42;;;;;;;7.10;3.10;;;;;;;11.29;100.00;98061.03;5052471;28;20032;-80
2023/03/10 08:39:13;;;;;;;9.27;2.60;;;;;;;11.30;100.00;98069.06;5052178;28;20024;-81
2023/03/10 08:41:47;;;;;;;31.27;5.15;;;;;;;11.47;100.00;98077.25;5051939;28;20102;-79
2023/03/10 08:44:16;;;;;;;6.03;2.70;;;;;;;11.52;100.00;98073.50;5036176;28;20035;-78
2023/03/10 08:46:45;;;;;;;65.93;10.45;;;;;;;11.55;100.00;98063.84;5038891;28;20160;-78
2023/03/10 08:49:10;;;;;;;16.08;3.15;;;;;;;11.61;100.00;98060.84;5050209;28;20036;-80
2023/03/10 08:51:36;;;;;;;9.40;2.97;;;;;;;11.70;100.00;98066.09;5051654;28;20025;-78
2023/03/10 08:54:03;;;;;;;8.07;3.15;;;;;;;11.70;100.00;98061.13;5053047;28;20024;-78
2023/03/10 08:56:31;;;;;;;4.10;2.20;;;;;;;11.75;100.00;98065.19;5050873;28;20032;-79
2023/03/10 08:58:59;;;;;;;6.68;2.17;;;;;;;11.79;100.00;98071.34;5053357;28;20074;-80
2023/03/10 09:01:31;;;;;;;4.15;2.03;;;;;;;11.91;100.00;98063.25;5049224;28;20445;-79
2023/03/10 09:04:12;;;;;;;5.82;1.80;;;;;;;12.08;100.00;98055.03;5051962;28;20064;-80
2023/03/10 09:06:41;;;;;;;7.38;2.58;;;;;;;12.27;100.00;98049.84;5053244;28;20431;-78
2023/03/10 09:09:08;;;;;;;6.60;2.10;;;;;;;12.43;100.00;98048.69;5053445;28;20086;-78
2023/03/10 09:11:36;;;;;;;3.90;2.17;;;;;;;12.64;100.00;98055.16;5034908;28;20441;-77
2023/03/10 09:14:19;;;;;;;3.80;1.60;;;;;;;12.77;100.00;98054.25;5051658;28;20115;-79
2023/03/10 09:16:44;;;;;;;5.22;1.55;;;;;;;12.83;100.00;98062.72;5053159;28;20363;-79
2023/03/10 09:19:11;;;;;;;3.38;1.25;;;;;;;12.81;100.00;98053.91;5051624;28;20040;-77
2023/03/10 09:21:37;;;;;;;6.00;2.47;;;;;;;12.86;100.00;98061.56;5052974;28;20425;-78
2023/03/10 09:24:04;;;;;;;2.47;0.98;;;;;;;12.92;100.00;98074.44;5052875;28;20029;-78
2023/03/10 09:26:31;;;;;;;5.30;1.42;;;;;;;12.89;100.00;98069.06;5051880;28;20037;-78
2023/03/10 09:28:57;;;;;;;7.20;2.17;;;;;;;12.91;100.00;98070.03;5051471;28;20032;-78
2023/03/10 09:31:39;;;;;;;2.22;0.80;;;;;;;12.93;100.00;98075.19;5051439;28;20394;-78
2023/03/10 09:34:07;;;;;;;1.45;1.13;;;;;;;12.84;100.00;98064.25;5051157;28;20037;-77
2023/03/10 09:36:33;;;;;;;2.17;1.20;;;;;;;12.74;100.00;98048.91;5051511;28;20043;-77
2023/03/10 09:39:13;;;;;;;5.53;1.20;;;;;;;12.57;100.00;98055.84;5052896;28;20017;-78
2023/03/10 09:42:06;;;;;;;2.05;0.90;;;;;;;12.50;100.00;98047.97;5052306;28;20110;-77
2023/03/10 09:44:58;;;;;;;2.80;1.33;;;;;;;12.51;100.00;98038.03;5052464;28;20025;-76
2023/03/10 09:47:41;;;;;;;5.47;1.40;;;;;;;12.37;100.00;98032.97;5052707;28;20037;-77
2023/03/10 09:50:37;;;;;;;2.47;1.25;;;;;;;12.36;100.00;98037.91;5052579;28;20045;-76
2023/03/10 09:53:25;;;;;;;3.28;1.30;;;;;;;12.19;100.00;98026.13;5051058;28;20520;-77
2023/03/10 09:55:50;;;;;;;3.97;1.25;;;;;;;12.06;100.00;98037.66;5052676;28;20061;-78
2023/03/10 09:58:38;;;;;;;8.80;1.65;;;;;;;11.96;100.00;98045.94;5052529;28;20063;-77
2023/03/10 10:01:20;;;;;;;4.22;1.80;;;;;;;12.11;100.00;98033.88;5035255;28;20025;-77
2023/03/10 10:04:13;;;;;;;3.47;1.25;;;;;;;11.98;100.00;98023.25;5055136;28;20082;-79
2023/03/10 10:06:56;;;;;;;4.78;1.60;;;;;;;12.00;100.00;98054.97;5054998;28;20041;-78
2023/03/10 10:09:41;;;;;;;3.42;1.52;;;;;;;12.12;100.00;98035.41;5055158;28;20300;-80
2023/03/10 10:12:22;;;;;;;8.55;2.00;;;;;;;12.14;100.00;98041.34;5056555;28;20031;-82
2023/03/10 10:14:54;;;;;;;6.30;1.40;;;;;;;12.23;100.00;98049.44;5055099;28;20028;-82
2023/03/10 10:17:53;;;;;;;11.67;2.03;;;;;;;12.41;100.00;98042.72;5038730;28;20029;-80
2023/03/10 10:20:28;;;;;;;8.48;1.70;;;;;;;12.62;100.00;98043.47;5055216;28;20057;-78
2023/03/10 10:22:53;;;;;;;26.27;3.00;;;;;;;12.82;100.00;98052.56;5039286;28;20036;-84
2023/03/10 10:25:39;;;;;;;10.70;3.25;;;;;;;13.03;100.00;98044.69;5056298;28;20025;-84
2023/03/10 10:28:34;;;;;;;4.38;1.20;;;;;;;13.37;100.00;98070.25;5038168;28;20025;-79
2023/03/10 10:31:19;;;;;;;3.53;0.93;;;;;;;13.45;100.00;98065.31;5054497;28;20045;-79
2023/03/10 10:33:59;;;;;;;4.15;1.20;;;;;;;13.47;99.78;98074.91;5055863;28;20065;-78
2023/03/10 10:36:41;;;;;;;3.42;1.30;;;;;;;13.51;99.99;98063.09;5054555;28;20060;-79
2023/03/10 10:39:27;;;;;;;2.78;1.38;;;;;;;13.66;99.60;98071.75;5040335;28;20048;-81
2023/03/10 10:42:19;;;;;;;1.95;0.98;;;;;;;13.73;99.49;98065.28;5055291;28;20056;-80
2023/03/10 10:45:01;;;;;;;1.15;1.05;;;;;;;13.85;98.58;98066.44;5055092;28;20036;-78
2023/03/10 10:47:35;;;;;;;1.95;1.02;;;;;;;13.93;98.20;98055.75;5053865;28;20090;-79
2023/03/10 10:50:16;;;;;;;2.55;1.00;;;;;;;14.12;96.00;98051.75;5056314;28;20036;-79
2023/03/10 10:52:47;;;;;;;2.72;1.00;;;;;;;14.09;94.11;98047.91;5055338;28;20040;-80
2023/03/10 10:55:33;;;;;;;19.20;2.10;;;;;;;14.19;95.66;98034.50;5054667;28;20036;-79
2023/03/10 10:58:02;;;;;;;5.50;2.00;;;;;;;14.45;96.15;98018.25;5055537;28;20044;-85
2023/03/10 11:00:35;;;;;;;1.75;0.80;;;;;;;14.76;95.10;98026.28;5038838;28;20032;-77
2023/03/10 11:03:49;;;;;;;3.03;1.10;;;;;;;15.02;94.08;98012.81;5056199;28;20489;-79
2023/03/10 11:06:26;;;;;;;2.05;1.05;;;;;;;15.18;90.11;98008.50;5052476;28;20471;-79
2023/03/10 11:09:16;;;;;;;2.25;1.00;;;;;;;15.23;89.36;98013.28;5055759;28;20108;-83
2023/03/10 11:12:00;;;;;;;2.35;1.10;;;;;;;15.53;87.17;98009.50;5039877;28;20032;-82
2023/03/10 11:14:56;;;;;;;3.15;1.25;;;;;;;15.60;84.08;97988.59;5054699;28;20086;-79
2023/03/10 11:17:34;;;;;;;7.30;1.30;;;;;;;15.44;85.91;98013.78;5053931;28;20116;-78
2023/03/10 11:21:10;;;;;;;3.78;1.30;;;;;;;15.46;85.97;97990.94;5055754;28;20155;-79
2023/03/10 11:23:47;;;;;;;3.25;1.02;;;;;;;15.55;83.75;98001.84;4994098;28;20088;-79
2023/03/10 11:26:19;;;;;;;1.52;1.00;;;;;;;15.49;84.41;98012.03;4992888;28;20030;-77
2023/03/10 11:29:37;;;;;;;2.10;1.00;;;;;;;15.45;85.89;98012.44;5034694;28;20058;-79
2023/03/10 11:32:29;;;;;;;2.67;1.13;;;;;;;15.48;86.70;98007.63;5059053;28;20032;-81
2023/03/10 11:34:55;;;;;;;;;;;;;;;15.46;88.63;98007.47;5056139;28;20029;-82
2023/03/10 11:37:30;;;;;;;2.38;0.95;;;;;;;15.52;87.49;98002.22;5053473;28;19987;-81
2023/03/10 11:40:06;;;;;;;2.20;1.10;;;;;;;15.37;87.38;98005.94;5053902;28;20104;-80